createdAt,value
2022-08-03T00:01:11.060Z,4.73
2022-08-03T00:04:01.983Z,4.47
2022-08-03T00:06:52.875Z,4.27
2022-08-03T00:09:43.966Z,4.70
2022-08-03T00:12:36.355Z,4.87
2022-08-03T00:15:28.889Z,4.03
2022-08-03T00:18:19.882Z,4.33
2022-08-03T00:21:10.669Z,4.37
2022-08-03T00:24:01.633Z,4.17
2022-08-03T00:26:52.482Z,4.40
2022-08-03T00:29:59.478Z,4.33
2022-08-03T00:32:52.696Z,4.37
2022-08-03T00:35:50.914Z,5.03
2022-08-03T00:38:42.405Z,5.33
2022-08-03T00:41:33.128Z,5.30
2022-08-03T00:44:23.956Z,5.27
2022-08-03T00:47:14.664Z,4.83
2022-08-03T00:50:07.415Z,5.00
2022-08-03T00:52:59.517Z,4.77
2022-08-03T00:55:50.676Z,4.27
2022-08-03T00:58:41.571Z,4.77
2022-08-03T01:01:32.926Z,5.23
2022-08-03T01:04:24.224Z,5.23
2022-08-03T01:07:18.715Z,4.53
2022-08-03T01:10:14.319Z,4.70
2022-08-03T01:14:01.747Z,4.90
2022-08-03T01:16:36.011Z,5.17
2022-08-03T01:19:37.321Z,5.27
2022-08-03T01:22:38.374Z,5.10
2022-08-03T01:25:36.308Z,4.87
2022-08-03T01:28:34.246Z,5.70
2022-08-03T01:31:28.214Z,4.67
2022-08-03T01:34:21.250Z,5.00
2022-08-03T01:37:13.164Z,4.50
2022-08-03T01:40:04.945Z,4.83
2022-08-03T01:42:57.942Z,4.77
2022-08-03T01:45:49.566Z,4.53
2022-08-03T01:48:43.160Z,5.07
2022-08-03T01:51:56.556Z,4.07
2022-08-03T01:54:46.353Z,4.20
2022-08-03T01:58:04.734Z,4.10
2022-08-03T02:00:50.169Z,4.27
2022-08-03T02:04:00.005Z,3.83
2022-08-03T02:07:02.578Z,4.00
2022-08-03T02:09:54.859Z,4.07
2022-08-03T02:12:46.200Z,4.37
2022-08-03T02:15:37.771Z,4.37
2022-08-03T02:18:29.327Z,4.37
2022-08-03T02:21:56.511Z,4.07
2022-08-03T02:24:33.452Z,4.27
2022-08-03T02:27:25.384Z,4.07
2022-08-03T02:30:16.646Z,4.10
2022-08-03T02:33:09.950Z,4.30
2022-08-03T02:36:02.015Z,4.63
2022-08-03T02:38:55.756Z,4.23
2022-08-03T02:41:49.772Z,3.77
2022-08-03T02:44:47.613Z,4.30
2022-08-03T02:47:54.047Z,3.90
2022-08-03T02:50:46.153Z,3.50
2022-08-03T02:53:38.417Z,3.40
2022-08-03T02:56:31.335Z,3.53
2022-08-03T02:59:23.392Z,3.93
2022-08-03T03:02:15.946Z,3.97
2022-08-03T03:05:54.898Z,3.53
2022-08-03T03:08:26.176Z,3.97
2022-08-03T03:11:20.688Z,3.70
2022-08-03T03:14:14.127Z,4.20
2022-08-03T03:17:05.579Z,3.50
2022-08-03T03:19:56.688Z,3.63
2022-08-03T03:22:50.653Z,3.50
2022-08-03T03:25:46.591Z,3.73
2022-08-03T03:28:38.012Z,3.87
2022-08-03T03:31:30.660Z,3.70
2022-08-03T03:34:21.729Z,3.77
2022-08-03T03:37:14.478Z,3.80
2022-08-03T03:40:05.889Z,3.77
2022-08-03T03:42:56.835Z,4.40
2022-08-03T03:45:48.434Z,4.07
2022-08-03T03:48:41.074Z,3.80
2022-08-03T03:51:31.824Z,3.97
2022-08-03T03:54:22.524Z,4.03
2022-08-03T03:57:16.911Z,4.07
2022-08-03T04:00:08.565Z,3.77
2022-08-03T04:02:59.325Z,3.83
2022-08-03T04:06:09.002Z,3.67
2022-08-03T04:09:18.730Z,3.93
2022-08-03T04:12:10.035Z,4.07
2022-08-03T04:15:02.019Z,4.13
2022-08-03T04:17:53.907Z,3.73
2022-08-03T04:20:46.582Z,4.53
2022-08-03T04:23:42.372Z,4.47
2022-08-03T04:26:34.767Z,3.87
2022-08-03T04:29:27.015Z,4.57
2022-08-03T04:32:18.735Z,4.27
2022-08-03T04:35:10.319Z,3.97
2022-08-03T04:38:03.486Z,4.03
2022-08-03T04:40:56.226Z,3.80
2022-08-03T04:43:48.588Z,4.37
2022-08-03T04:46:39.982Z,4.70
2022-08-03T04:49:38.488Z,4.40
2022-08-03T04:52:29.638Z,4.13
2022-08-03T04:55:26.403Z,4.20
2022-08-03T04:58:18.769Z,4.20
2022-08-03T05:01:09.668Z,3.97
2022-08-03T05:04:02.473Z,4.37
2022-08-03T05:06:54.839Z,4.03
2022-08-03T05:09:52.307Z,4.13
2022-08-03T05:12:43.537Z,3.63
2022-08-03T05:15:36.210Z,4.37
2022-08-03T05:18:35.862Z,5.10
2022-08-03T05:21:26.715Z,4.30
2022-08-03T05:24:37.698Z,4.73
2022-08-03T05:27:28.757Z,4.30
2022-08-03T05:30:30.467Z,4.37
2022-08-03T05:33:26.762Z,4.20
2022-08-03T05:36:17.815Z,3.53
2022-08-03T05:39:08.517Z,3.53
2022-08-03T05:41:59.330Z,4.03
2022-08-03T05:44:50.393Z,3.70
2022-08-03T05:47:44.214Z,3.47
2022-08-03T05:50:41.121Z,3.70
2022-08-03T05:53:34.014Z,3.50
2022-08-03T05:56:25.635Z,3.40
2022-08-03T05:59:37.761Z,4.00
2022-08-03T06:02:28.064Z,3.17
2022-08-03T06:05:20.310Z,3.73
2022-08-03T06:08:15.464Z,3.83
2022-08-03T06:11:06.627Z,3.53
2022-08-03T06:13:57.376Z,3.63
2022-08-03T06:16:48.099Z,3.57
2022-08-03T06:19:38.901Z,3.20
2022-08-03T06:22:29.709Z,3.43
2022-08-03T06:25:22.304Z,3.83
2022-08-03T06:31:32.290Z,3.37
2022-08-03T06:34:33.190Z,3.43
2022-08-03T06:37:27.112Z,3.20
2022-08-03T06:40:21.591Z,2.90
2022-08-03T06:43:15.500Z,2.80
2022-08-03T06:46:07.375Z,3.33
2022-08-03T06:48:58.287Z,3.20
2022-08-03T06:52:06.062Z,3.17
2022-08-03T06:54:57.906Z,3.10
2022-08-03T06:57:48.756Z,3.17
2022-08-03T07:00:40.909Z,3.10
2022-08-03T07:03:31.772Z,3.10
2022-08-03T07:06:24.089Z,3.40
2022-08-03T07:09:15.024Z,4.10
2022-08-03T07:12:08.998Z,3.83
2022-08-03T07:15:02.666Z,4.53
2022-08-03T07:17:55.478Z,3.17
2022-08-03T07:20:46.379Z,2.87
2022-08-03T07:23:37.334Z,3.30
2022-08-03T07:26:28.411Z,3.20
2022-08-03T07:29:19.610Z,3.30
2022-08-03T07:32:10.599Z,2.97
2022-08-03T07:35:03.280Z,2.70
2022-08-03T07:37:59.499Z,3.83
2022-08-03T07:40:50.185Z,3.10
2022-08-03T07:43:40.878Z,3.80
2022-08-03T07:46:31.747Z,2.90
2022-08-03T07:49:22.804Z,4.20
2022-08-03T07:52:33.085Z,3.30
2022-08-03T07:55:25.022Z,2.70
2022-08-03T07:58:22.083Z,3.30
2022-08-03T08:01:15.311Z,3.03
2022-08-03T08:04:06.262Z,3.03
2022-08-03T08:06:56.977Z,2.97
2022-08-03T08:09:48.981Z,3.13
2022-08-03T08:12:40.328Z,3.40
2022-08-03T08:15:31.619Z,3.40
2022-08-03T08:18:24.046Z,2.90
2022-08-03T08:21:15.055Z,3.40
2022-08-03T08:24:10.939Z,3.10
2022-08-03T08:27:11.971Z,3.90
2022-08-03T08:30:11.423Z,5.15
2022-08-03T08:33:04.411Z,3.70
2022-08-03T08:35:55.400Z,5.80
2022-08-03T08:38:46.617Z,5.78
2022-08-03T08:41:37.335Z,2.65
2022-08-03T08:44:31.314Z,3.13
2022-08-03T08:47:23.221Z,2.40
2022-08-03T08:50:27.124Z,2.35
2022-08-03T08:53:21.783Z,2.22
2022-08-03T08:56:17.861Z,2.70
2022-08-03T08:59:08.785Z,2.78
2022-08-03T09:02:01.434Z,2.30
2022-08-03T09:04:54.122Z,14.80
2022-08-03T09:07:45.790Z,3.60
2022-08-03T09:10:36.512Z,2.90
2022-08-03T09:13:27.331Z,3.33
2022-08-03T09:16:19.069Z,2.42
2022-08-03T09:19:14.747Z,2.67
2022-08-03T09:22:09.388Z,2.67
2022-08-03T09:25:23.483Z,3.33
2022-08-03T09:29:01.755Z,3.38
2022-08-03T09:31:33.436Z,4.00
2022-08-03T09:34:28.476Z,3.15
2022-08-03T09:37:20.073Z,2.65
2022-08-03T09:40:35.266Z,3.08
2022-08-03T09:43:27.711Z,3.90
2022-08-03T09:46:19.400Z,2.97
2022-08-03T09:49:11.904Z,4.88
2022-08-03T09:52:37.693Z,3.47
2022-08-03T09:56:33.220Z,2.88
2022-08-03T09:58:45.353Z,2.45
2022-08-03T10:01:37.336Z,2.63
2022-08-03T10:04:28.890Z,3.25
2022-08-03T10:07:21.439Z,3.08
2022-08-03T10:10:31.019Z,4.15
2022-08-03T10:13:23.550Z,4.07
2022-08-03T10:16:23.954Z,4.78
2022-08-03T10:19:16.838Z,3.90
2022-08-03T10:22:10.294Z,3.00
2022-08-03T10:25:04.813Z,2.90
2022-08-03T10:27:57.531Z,2.75
2022-08-03T10:30:49.571Z,3.03
2022-08-03T10:33:51.104Z,5.28
2022-08-03T10:36:44.160Z,6.55
2022-08-03T10:39:35.050Z,7.50
2022-08-03T10:42:28.171Z,3.75
2022-08-03T10:45:20.845Z,2.50
2022-08-03T10:48:12.718Z,16.30
2022-08-03T10:51:04.764Z,4.10
2022-08-03T10:53:55.923Z,3.70
2022-08-03T10:57:14.360Z,6.05
2022-08-03T11:00:08.117Z,2.88
2022-08-03T11:03:02.688Z,4.40
2022-08-03T11:05:54.525Z,2.95
2022-08-03T11:08:46.244Z,2.97
2022-08-03T11:11:37.746Z,2.80
2022-08-03T11:14:28.771Z,3.17
2022-08-03T11:17:23.085Z,2.70
2022-08-03T11:20:13.995Z,2.60
2022-08-03T11:23:04.916Z,2.42
2022-08-03T11:26:09.444Z,3.05
2022-08-03T11:29:15.140Z,2.42
2022-08-03T11:32:06.277Z,2.03
2022-08-03T11:35:12.461Z,5.25
2022-08-03T11:38:12.041Z,2.60
2022-08-03T11:41:03.504Z,3.30
2022-08-03T11:43:54.554Z,2.53
2022-08-03T11:46:45.383Z,2.63
2022-08-03T11:49:38.729Z,3.90
2022-08-03T11:52:35.111Z,6.47
2022-08-03T11:55:30.586Z,3.25
2022-08-03T11:59:00.955Z,2.80
2022-08-03T12:01:33.403Z,2.60
2022-08-03T12:04:25.236Z,2.05
2022-08-03T12:08:02.186Z,2.33
2022-08-03T12:10:28.526Z,2.10
2022-08-03T12:14:08.823Z,2.47
2022-08-03T12:16:31.694Z,4.15
2022-08-03T12:19:22.753Z,3.67
2022-08-03T12:22:17.099Z,2.63
2022-08-03T12:25:09.075Z,2.05
2022-08-03T12:28:36.266Z,3.00
2022-08-03T12:31:23.028Z,3.10
2022-08-03T12:34:14.722Z,4.30
2022-08-03T12:37:20.229Z,4.35
2022-08-03T12:40:20.601Z,9.00
2022-08-03T12:43:14.822Z,3.78
2022-08-03T12:46:12.933Z,3.05
2022-08-03T12:49:06.284Z,3.53
2022-08-03T12:52:00.790Z,2.58
2022-08-03T12:54:55.387Z,3.08
2022-08-03T12:57:46.353Z,4.28
2022-08-03T13:00:38.712Z,4.60
2022-08-03T13:03:39.518Z,8.18
2022-08-03T13:06:33.440Z,7.18
2022-08-03T13:09:26.257Z,14.65
2022-08-03T13:12:17.991Z,8.68
2022-08-03T13:15:08.934Z,4.80
2022-08-03T13:18:01.408Z,6.80
2022-08-03T13:20:52.366Z,6.55
2022-08-03T13:23:43.098Z,2.60
2022-08-03T13:26:33.849Z,3.35
2022-08-03T13:29:24.955Z,3.25
2022-08-03T13:32:15.965Z,3.08
2022-08-03T13:35:08.872Z,2.90
2022-08-03T13:38:00.119Z,2.90
2022-08-03T13:40:52.403Z,3.10
2022-08-03T13:43:43.659Z,2.30
2022-08-03T13:46:34.827Z,2.88
2022-08-03T13:49:25.718Z,3.10
2022-08-03T13:52:17.990Z,3.10
2022-08-03T13:55:09.658Z,3.50
2022-08-03T13:58:02.919Z,4.78
2022-08-03T14:00:58.091Z,3.20
2022-08-03T14:03:52.632Z,2.80
2022-08-03T14:06:45.876Z,2.75
2022-08-03T14:09:38.490Z,2.70
2022-08-03T14:12:29.198Z,2.55
2022-08-03T14:15:19.921Z,2.60
2022-08-03T14:18:12.708Z,2.70
2022-08-03T14:21:07.480Z,2.22
2022-08-03T14:23:58.438Z,10.75
2022-08-03T14:26:50.446Z,2.78
2022-08-03T14:29:41.229Z,2.47
2022-08-03T14:32:32.202Z,3.13
2022-08-03T14:35:23.398Z,2.75
2022-08-03T14:38:14.468Z,2.20
2022-08-03T14:41:05.663Z,2.45
2022-08-03T14:44:00.486Z,32.58
2022-08-03T14:46:53.269Z,5.40
2022-08-03T14:50:38.729Z,5.78
2022-08-03T14:52:55.385Z,3.20
2022-08-03T14:55:49.906Z,4.38
2022-08-03T14:58:42.739Z,33.30
2022-08-03T15:02:04.438Z,13.70
2022-08-03T15:04:46.258Z,4.55
2022-08-03T15:07:37.225Z,2.92
2022-08-03T15:10:40.152Z,2.45
2022-08-03T15:13:35.667Z,2.55
2022-08-03T15:16:30.093Z,2.88
2022-08-03T15:20:03.518Z,3.08
2022-08-03T15:22:34.434Z,2.88
2022-08-03T15:26:29.636Z,2.90
2022-08-03T15:28:37.430Z,2.92
2022-08-03T15:31:28.825Z,3.17
2022-08-03T15:34:19.715Z,3.05
2022-08-03T15:37:16.183Z,2.50
2022-08-03T15:40:07.981Z,2.90
2022-08-03T15:43:00.779Z,2.47
2022-08-03T15:46:26.641Z,2.53
2022-08-03T15:49:02.701Z,2.50
2022-08-03T15:51:53.566Z,2.92
2022-08-03T15:54:45.962Z,2.40
2022-08-03T15:59:04.723Z,2.92
2022-08-03T16:00:48.670Z,2.78
2022-08-03T16:03:39.492Z,3.28
2022-08-03T16:06:35.855Z,2.40
2022-08-03T16:09:42.201Z,2.50
2022-08-03T16:12:35.240Z,2.50
2022-08-03T16:15:26.256Z,3.78
2022-08-03T16:18:17.138Z,3.75
2022-08-03T16:21:07.811Z,3.95
2022-08-03T16:24:03.655Z,3.25
2022-08-03T16:27:00.471Z,3.40
2022-08-03T16:29:53.383Z,2.88
2022-08-03T16:32:45.312Z,2.92
2022-08-03T16:35:36.521Z,3.40
2022-08-03T16:38:27.675Z,2.92
2022-08-03T16:41:18.573Z,10.88
2022-08-03T16:44:10.082Z,3.13
2022-08-03T16:47:02.615Z,3.33
2022-08-03T16:49:56.408Z,2.78
2022-08-03T16:52:48.556Z,4.40
2022-08-03T16:55:43.408Z,4.80
2022-08-03T16:58:44.201Z,3.70
2022-08-03T17:01:37.702Z,4.22
2022-08-03T17:04:30.974Z,5.30
2022-08-03T17:07:23.745Z,3.67
2022-08-03T17:10:21.903Z,3.90
2022-08-03T17:13:40.026Z,2.72
2022-08-03T17:16:28.935Z,2.60
2022-08-03T17:19:21.451Z,3.38
2022-08-03T17:22:16.432Z,3.20
2022-08-03T17:25:08.353Z,3.20
2022-08-03T17:28:51.235Z,4.30
2022-08-03T17:31:22.891Z,4.32
2022-08-03T17:34:26.370Z,3.50
2022-08-03T17:37:50.051Z,3.88
2022-08-03T17:40:31.883Z,3.65
2022-08-03T17:43:44.365Z,4.20
2022-08-03T17:46:34.337Z,2.90
2022-08-03T17:49:26.163Z,3.53
2022-08-03T17:52:27.309Z,3.40
2022-08-03T17:55:56.101Z,3.10
2022-08-03T17:58:36.424Z,3.30
2022-08-03T18:02:06.028Z,3.65
2022-08-03T18:05:03.192Z,3.30
2022-08-03T18:08:11.627Z,3.97
2022-08-03T18:11:09.826Z,4.10
2022-08-03T18:14:16.369Z,4.13
2022-08-03T18:17:10.280Z,4.05
2022-08-03T18:20:11.652Z,4.80
2022-08-03T18:23:24.957Z,5.40
2022-08-03T18:26:25.913Z,5.43
2022-08-03T18:29:17.101Z,5.75
2022-08-03T18:32:17.004Z,4.55
2022-08-03T18:35:14.220Z,4.53
2022-08-03T18:38:05.194Z,4.88
2022-08-03T18:41:02.839Z,5.10
2022-08-03T18:44:06.583Z,5.45
2022-08-03T18:47:19.526Z,5.85
2022-08-03T18:50:19.054Z,5.57
2022-08-03T18:53:19.281Z,5.43
2022-08-03T18:56:15.903Z,6.00
2022-08-03T18:59:15.830Z,5.50
2022-08-03T19:02:09.403Z,5.55
2022-08-03T19:05:06.252Z,5.60
2022-08-03T19:07:59.949Z,7.85
2022-08-03T19:11:00.590Z,8.35
2022-08-03T19:13:56.553Z,7.78
2022-08-03T19:16:49.703Z,7.15
2022-08-03T19:19:44.920Z,7.63
2022-08-03T19:22:36.787Z,8.43
2022-08-03T19:25:35.319Z,8.55
2022-08-03T19:28:29.596Z,9.02
2022-08-03T19:31:22.866Z,7.80
2022-08-03T19:34:24.164Z,8.68
2022-08-03T19:37:15.500Z,8.52
2022-08-03T19:40:10.636Z,10.07
2022-08-03T19:43:08.120Z,9.50
2022-08-03T19:46:05.778Z,9.23
2022-08-03T19:49:00.404Z,8.90
2022-08-03T19:52:01.287Z,9.20
2022-08-03T19:54:56.793Z,9.95
2022-08-03T19:57:49.008Z,9.43
2022-08-03T20:00:40.882Z,10.40
2022-08-03T20:03:43.411Z,11.30
2022-08-03T20:06:35.900Z,11.40
2022-08-03T20:09:30.372Z,12.00
2022-08-03T20:12:27.614Z,10.50
2022-08-03T20:15:30.955Z,11.10
2022-08-03T20:18:23.140Z,11.40
2022-08-03T20:21:15.678Z,11.17
2022-08-03T20:24:23.373Z,11.70
2022-08-03T20:27:18.277Z,12.03
2022-08-03T20:30:09.571Z,11.23
2022-08-03T20:33:00.891Z,11.03
2022-08-03T20:35:55.744Z,10.60
2022-08-03T20:38:48.341Z,12.23
2022-08-03T20:41:41.356Z,12.13
2022-08-03T20:44:32.437Z,11.77
2022-08-03T20:47:24.233Z,11.60
2022-08-03T20:50:15.902Z,12.37
2022-08-03T20:53:08.679Z,12.43
2022-08-03T20:56:03.573Z,13.43
2022-08-03T20:58:57.108Z,14.00
2022-08-03T21:01:50.759Z,12.80
2022-08-03T21:04:42.044Z,13.83
2022-08-03T21:08:04.441Z,14.03
2022-08-03T21:10:53.453Z,12.60
2022-08-03T21:13:46.790Z,12.73
2022-08-03T21:16:44.786Z,12.63
2022-08-03T21:19:38.198Z,13.20
2022-08-03T21:22:47.896Z,13.13
2022-08-03T21:25:40.343Z,13.03
2022-08-03T21:28:31.486Z,13.00
2022-08-03T21:31:25.171Z,13.40
2022-08-03T21:34:18.933Z,13.67
2022-08-03T21:37:09.776Z,12.33
2022-08-03T21:40:06.067Z,13.43
2022-08-03T21:42:57.106Z,12.37
2022-08-03T21:45:50.847Z,12.00
2022-08-03T21:48:42.649Z,12.67
2022-08-03T21:51:36.017Z,12.70
2022-08-03T21:54:32.405Z,12.00
2022-08-03T21:57:25.053Z,11.60
2022-08-03T22:00:17.087Z,13.07
2022-08-03T22:03:17.127Z,12.40
2022-08-03T22:06:11.063Z,10.90
2022-08-03T22:09:11.824Z,12.00
2022-08-03T22:12:02.754Z,11.70
2022-08-03T22:15:01.379Z,11.77
2022-08-03T22:17:56.055Z,11.47
2022-08-03T22:20:50.199Z,11.37
2022-08-03T22:23:42.730Z,12.03
2022-08-03T22:26:36.425Z,12.30
2022-08-03T22:29:27.451Z,10.97
2022-08-03T22:32:18.562Z,10.77
2022-08-03T22:35:10.376Z,11.33
2022-08-03T22:38:02.894Z,11.07
2022-08-03T22:40:54.196Z,11.00
2022-08-03T22:43:46.286Z,10.80
2022-08-03T22:46:38.719Z,12.13
2022-08-03T22:49:30.214Z,11.80
2022-08-03T22:52:21.401Z,12.20
2022-08-03T22:55:24.729Z,11.73
2022-08-03T22:58:16.782Z,12.17
2022-08-03T23:01:12.102Z,12.33
2022-08-03T23:04:04.092Z,11.27
2022-08-03T23:06:56.514Z,11.67
2022-08-03T23:09:48.822Z,11.23
2022-08-03T23:12:40.589Z,12.63
2022-08-03T23:15:32.841Z,12.40
2022-08-03T23:18:25.863Z,11.83
2022-08-03T23:21:20.155Z,12.90
2022-08-03T23:24:31.512Z,12.47
2022-08-03T23:27:22.664Z,12.67
2022-08-03T23:30:13.882Z,12.73
2022-08-03T23:33:05.419Z,12.23
2022-08-03T23:36:28.620Z,12.07
2022-08-03T23:39:09.331Z,13.37
2022-08-03T23:42:00.411Z,12.87
2022-08-03T23:44:54.677Z,12.30
2022-08-03T23:47:50.194Z,11.70
2022-08-03T23:50:44.321Z,11.67
2022-08-03T23:53:41.470Z,13.27
2022-08-03T23:56:35.981Z,12.37
2022-08-03T23:59:29.795Z,11.73
